sensor_id;sensor_type;location;lat;lon;timestamp;pressure;altitude;pressure_sealevel;temperature;humidity
65546;BME280;52177;55.968;37.498;2023-04-27T00:00:24;98953.56;;;7.54;72.23
65546;BME280;52177;55.968;37.498;2023-04-27T00:00:54;98950.09;;;7.54;72.54
65546;BME280;52177;55.968;37.498;2023-04-27T00:01:25;98948.59;;;7.51;72.64
65546;BME280;52177;55.968;37.498;2023-04-27T00:01:55;98949.78;;;7.49;72.84
65546;BME280;52177;55.968;37.498;2023-04-27T00:02:25;98953.59;;;7.46;72.92
65546;BME280;52177;55.968;37.498;2023-04-27T00:02:56;98947.63;;;7.44;73.04
65546;BME280;52177;55.968;37.498;2023-04-27T00:03:27;98958.25;;;7.44;72.99
65546;BME280;52177;55.968;37.498;2023-04-27T00:03:57;98955.78;;;7.43;72.91
65546;BME280;52177;55.968;37.498;2023-04-27T00:04:27;98957.78;;;7.40;72.78
65546;BME280;52177;55.968;37.498;2023-04-27T00:04:58;98956.97;;;7.40;72.78
65546;BME280;52177;55.968;37.498;2023-04-27T00:05:28;98955.13;;;7.40;72.68
65546;BME280;52177;55.968;37.498;2023-04-27T00:05:58;98956.97;;;7.40;72.72
65546;BME280;52177;55.968;37.498;2023-04-27T00:06:29;98957.78;;;7.40;72.83
65546;BME280;52177;55.968;37.498;2023-04-27T00:06:59;98962.91;;;7.42;72.70
65546;BME280;52177;55.968;37.498;2023-04-27T00:07:30;98956.59;;;7.43;72.58
65546;BME280;52177;55.968;37.498;2023-04-27T00:08:01;98957.44;;;7.44;72.59
65546;BME280;52177;55.968;37.498;2023-04-27T00:08:32;98958.25;;;7.44;72.36
65546;BME280;52177;55.968;37.498;2023-04-27T00:09:02;98960.75;;;7.46;72.51
65546;BME280;52177;55.968;37.498;2023-04-27T00:09:33;98962.56;;;7.45;72.60
65546;BME280;52177;55.968;37.498;2023-04-27T00:10:04;98963.56;;;7.44;72.57
65546;BME280;52177;55.968;37.498;2023-04-27T00:10:34;98965.22;;;7.45;72.54
65546;BME280;52177;55.968;37.498;2023-04-27T00:11:05;98969.50;;;7.46;72.58
65546;BME280;52177;55.968;37.498;2023-04-27T00:11:35;98964.41;;;7.45;72.57
65546;BME280;52177;55.968;37.498;2023-04-27T00:12:06;98971.50;;;7.44;72.50
65546;BME280;52177;55.968;37.498;2023-04-27T00:12:37;98962.72;;;7.44;72.68
65546;BME280;52177;55.968;37.498;2023-04-27T00:13:07;98967.22;;;7.43;72.62
65546;BME280;52177;55.968;37.498;2023-04-27T00:13:38;98966.19;;;7.44;72.69
65546;BME280;52177;55.968;37.498;2023-04-27T00:14:08;98969.06;;;7.43;72.49
65546;BME280;52177;55.968;37.498;2023-04-27T00:14:39;98971.50;;;7.44;72.61
65546;BME280;52177;55.968;37.498;2023-04-27T00:15:09;98967.88;;;7.45;72.62
65546;BME280;52177;55.968;37.498;2023-04-27T00:15:40;98965.88;;;7.47;72.69
65546;BME280;52177;55.968;37.498;2023-04-27T00:16:10;98965.88;;;7.47;72.48
65546;BME280;52177;55.968;37.498;2023-04-27T00:16:41;98963.88;;;7.49;72.53
65546;BME280;52177;55.968;37.498;2023-04-27T00:17:11;98969.00;;;7.51;72.71
65546;BME280;52177;55.968;37.498;2023-04-27T00:17:42;98959.41;;;7.50;72.54
65546;BME280;52177;55.968;37.498;2023-04-27T00:18:12;98967.34;;;7.50;72.19
65546;BME280;52177;55.968;37.498;2023-04-27T00:18:43;98965.53;;;7.50;72.51
65546;BME280;52177;55.968;37.498;2023-04-27T00:19:13;98972.66;;;7.50;72.25
65546;BME280;52177;55.968;37.498;2023-04-27T00:19:44;98972.81;;;7.48;72.40
65546;BME280;52177;55.968;37.498;2023-04-27T00:20:16;98969.50;;;7.46;72.72
65546;BME280;52177;55.968;37.498;2023-04-27T00:20:47;98967.88;;;7.45;72.84
65546;BME280;52177;55.968;37.498;2023-04-27T00:21:18;98971.69;;;7.43;72.95
65546;BME280;52177;55.968;37.498;2023-04-27T00:21:48;98970.22;;;7.40;73.02
65546;BME280;52177;55.968;37.498;2023-04-27T00:22:19;98966.09;;;7.37;72.93
65546;BME280;52177;55.968;37.498;2023-04-27T00:22:49;98968.09;;;7.35;72.92
65546;BME280;52177;55.968;37.498;2023-04-27T00:23:20;98969.28;;;7.33;72.98
65546;BME280;52177;55.968;37.498;2023-04-27T00:23:50;98967.75;;;7.30;72.88
65546;BME280;52177;55.968;37.498;2023-04-27T00:24:21;98968.78;;;7.29;72.94
65546;BME280;52177;55.968;37.498;2023-04-27T00:24:51;98971.28;;;7.31;73.13
65546;BME280;52177;55.968;37.498;2023-04-27T00:25:21;98970.41;;;7.30;73.24
65546;BME280;52177;55.968;37.498;2023-04-27T00:25:52;98976.56;;;7.31;73.31
65546;BME280;52177;55.968;37.498;2023-04-27T00:26:22;98973.91;;;7.31;73.00
65546;BME280;52177;55.968;37.498;2023-04-27T00:26:52;98968.78;;;7.29;73.03
65546;BME280;52177;55.968;37.498;2023-04-27T00:27:23;98976.91;;;7.28;72.96
65546;BME280;52177;55.968;37.498;2023-04-27T00:27:53;98969.94;;;7.27;73.03
65546;BME280;52177;55.968;37.498;2023-04-27T00:28:24;98977.09;;;7.26;72.75
65546;BME280;52177;55.968;37.498;2023-04-27T00:28:54;98976.22;;;7.26;72.74
65546;BME280;52177;55.968;37.498;2023-04-27T00:29:24;98978.25;;;7.24;72.69
65546;BME280;52177;55.968;37.498;2023-04-27T00:29:55;98972.97;;;7.24;72.92
65546;BME280;52177;55.968;37.498;2023-04-27T00:30:25;98972.97;;;7.24;72.97
65546;BME280;52177;55.968;37.498;2023-04-27T00:30:55;98972.97;;;7.24;73.07
65546;BME280;52177;55.968;37.498;2023-04-27T00:31:26;98969.28;;;7.25;73.18
65546;BME280;52177;55.968;37.498;2023-04-27T00:31:56;98976.91;;;7.28;73.10
65546;BME280;52177;55.968;37.498;2023-04-27T00:32:26;98970.59;;;7.29;73.07
65546;BME280;52177;55.968;37.498;2023-04-27T00:32:57;98976.72;;;7.29;72.71
65546;BME280;52177;55.968;37.498;2023-04-27T00:33:28;98976.91;;;7.28;72.74
65546;BME280;52177;55.968;37.498;2023-04-27T00:33:58;98978.88;;;7.26;72.77
65546;BME280;52177;55.968;37.498;2023-04-27T00:34:29;98978.88;;;7.26;72.83
65546;BME280;52177;55.968;37.498;2023-04-27T00:34:59;98973.13;;;7.22;72.80
65546;BME280;52177;55.968;37.498;2023-04-27T00:35:31;98981.25;;;7.21;72.76
65546;BME280;52177;55.968;37.498;2023-04-27T00:36:02;98978.44;;;7.22;72.82
65546;BME280;52177;55.968;37.498;2023-04-27T00:36:33;98977.59;;;7.22;72.67
65546;BME280;52177;55.968;37.498;2023-04-27T00:37:04;98980.25;;;7.22;72.69
65546;BME280;52177;55.968;37.498;2023-04-27T00:37:34;98980.25;;;7.22;72.71
65546;BME280;52177;55.968;37.498;2023-04-27T00:38:05;98976.78;;;7.21;72.67
65546;BME280;52177;55.968;37.498;2023-04-27T00:38:35;98975.78;;;7.22;72.84
65546;BME280;52177;55.968;37.498;2023-04-27T00:39:06;98975.78;;;7.22;72.97
65546;BME280;52177;55.968;37.498;2023-04-27T00:39:36;98980.91;;;7.24;72.85
65546;BME280;52177;55.968;37.498;2023-04-27T00:40:07;98989.50;;;7.26;73.02
65546;BME280;52177;55.968;37.498;2023-04-27T00:40:38;98978.72;;;7.27;72.88
65546;BME280;52177;55.968;37.498;2023-04-27T00:41:08;98985.84;;;7.27;72.98
65546;BME280;52177;55.968;37.498;2023-04-27T00:41:39;98983.88;;;7.29;72.79
65546;BME280;52177;55.968;37.498;2023-04-27T00:42:09;98980.19;;;7.30;72.56
65546;BME280;52177;55.968;37.498;2023-04-27T00:42:44;98981.22;;;7.29;72.69
65546;BME280;52177;55.968;37.498;2023-04-27T00:43:14;98987.34;;;7.29;72.83
65546;BME280;52177;55.968;37.498;2023-04-27T00:43:45;98979.38;;;7.29;72.65
65546;BME280;52177;55.968;37.498;2023-04-27T00:44:25;98980.56;;;7.27;72.69
65546;BME280;52177;55.968;37.498;2023-04-27T00:44:56;98982.56;;;7.25;72.68
65546;BME280;52177;55.968;37.498;2023-04-27T00:45:27;98981.72;;;7.24;72.68
65546;BME280;52177;55.968;37.498;2023-04-27T00:45:58;98980.06;;;7.23;72.91
65546;BME280;52177;55.968;37.498;2023-04-27T00:46:29;98983.88;;;7.21;72.82
65546;BME280;52177;55.968;37.498;2023-04-27T00:47:00;98983.88;;;7.21;73.00
65546;BME280;52177;55.968;37.498;2023-04-27T00:47:31;98986.72;;;7.19;72.81
65546;BME280;52177;55.968;37.498;2023-04-27T00:48:02;98983.41;;;7.17;72.95
65546;BME280;52177;55.968;37.498;2023-04-27T00:48:32;98979.09;;;7.16;72.94
65546;BME280;52177;55.968;37.498;2023-04-27T00:49:03;98983.59;;;7.15;73.03
65546;BME280;52177;55.968;37.498;2023-04-27T00:49:33;98981.94;;;7.14;73.07
65546;BME280;52177;55.968;37.498;2023-04-27T00:50:04;98988.06;;;7.15;73.14
65546;BME280;52177;55.968;37.498;2023-04-27T00:50:38;98984.59;;;7.14;73.07
65546;BME280;52177;55.968;37.498;2023-04-27T00:51:09;98977.81;;;7.12;72.98
65546;BME280;52177;55.968;37.498;2023-04-27T00:51:39;98985.78;;;7.12;73.01
65546;BME280;52177;55.968;37.498;2023-04-27T00:52:10;98984.09;;;7.11;72.87
65546;BME280;52177;55.968;37.498;2023-04-27T00:52:40;98987.75;;;7.10;72.76
65546;BME280;52177;55.968;37.498;2023-04-27T00:53:11;98986.28;;;7.07;72.81
65546;BME280;52177;55.968;37.498;2023-04-27T00:53:42;98975.84;;;7.06;72.80
65546;BME280;52177;55.968;37.498;2023-04-27T00:54:18;98990.91;;;7.05;72.86
65546;BME280;52177;55.968;37.498;2023-04-27T00:54:50;98992.91;;;7.03;72.95
65546;BME280;52177;55.968;37.498;2023-04-27T00:55:21;98992.09;;;7.03;73.17
65546;BME280;52177;55.968;37.498;2023-04-27T00:55:52;98987.78;;;7.02;73.16
65546;BME280;52177;55.968;37.498;2023-04-27T00:56:22;98985.13;;;7.02;73.18
65546;BME280;52177;55.968;37.498;2023-04-27T00:56:52;98995.72;;;7.02;73.22
65546;BME280;52177;55.968;37.498;2023-04-27T00:57:23;98993.25;;;7.00;73.29
65546;BME280;52177;55.968;37.498;2023-04-27T00:57:53;98994.91;;;7.01;73.24
65546;BME280;52177;55.968;37.498;2023-04-27T00:58:24;98988.94;;;6.99;73.37
65546;BME280;52177;55.968;37.498;2023-04-27T00:58:55;98995.41;;;6.96;73.37
65546;BME280;52177;55.968;37.498;2023-04-27T00:59:25;98992.94;;;6.95;73.41
65546;BME280;52177;55.968;37.498;2023-04-27T00:59:55;98994.75;;;6.94;73.53
65546;BME280;52177;55.968;37.498;2023-04-27T01:00:26;98994.28;;;6.91;73.33
65546;BME280;52177;55.968;37.498;2023-04-27T01:00:57;98987.50;;;6.88;73.60
65546;BME280;52177;55.968;37.498;2023-04-27T01:01:28;98997.25;;;6.88;73.43
65546;BME280;52177;55.968;37.498;2023-04-27T01:01:59;98997.91;;;6.90;73.66
65546;BME280;52177;55.968;37.498;2023-04-27T01:02:30;98994.44;;;6.89;73.70
65546;BME280;52177;55.968;37.498;2023-04-27T01:03:01;98992.97;;;6.87;73.71
65546;BME280;52177;55.968;37.498;2023-04-27T01:03:33;98995.63;;;6.87;73.97
65546;BME280;52177;55.968;37.498;2023-04-27T01:04:03;98987.81;;;6.85;73.77
65546;BME280;52177;55.968;37.498;2023-04-27T01:04:34;98990.47;;;6.85;74.00
65546;BME280;52177;55.968;37.498;2023-04-27T01:05:06;98986.19;;;6.84;73.97
65546;BME280;52177;55.968;37.498;2023-04-27T01:05:38;98994.28;;;6.83;73.69
65546;BME280;52177;55.968;37.498;2023-04-27T01:06:08;98990.97;;;6.81;73.86
65546;BME280;52177;55.968;37.498;2023-04-27T01:06:38;98992.97;;;6.79;73.58
65546;BME280;52177;55.968;37.498;2023-04-27T01:07:09;98988.03;;;6.75;73.80
65546;BME280;52177;55.968;37.498;2023-04-27T01:07:40;98994.97;;;6.76;73.70
65546;BME280;52177;55.968;37.498;2023-04-27T01:08:11;99001.44;;;6.74;73.76
65546;BME280;52177;55.968;37.498;2023-04-27T01:08:41;98997.81;;;6.75;73.65
65546;BME280;52177;55.968;37.498;2023-04-27T01:09:11;98998.63;;;6.75;73.73
65546;BME280;52177;55.968;37.498;2023-04-27T01:09:42;98999.44;;;6.76;73.67
65546;BME280;52177;55.968;37.498;2023-04-27T01:10:12;98996.63;;;6.78;73.55
65546;BME280;52177;55.968;37.498;2023-04-27T01:10:43;98996.47;;;6.79;73.52
65546;BME280;52177;55.968;37.498;2023-04-27T01:11:13;99001.78;;;6.79;73.58
65546;BME280;52177;55.968;37.498;2023-04-27T01:11:44;99004.06;;;6.82;73.52
65546;BME280;52177;55.968;37.498;2023-04-27T01:12:15;99004.88;;;6.83;73.34
65546;BME280;52177;55.968;37.498;2023-04-27T01:12:45;98999.59;;;6.83;73.44
65546;BME280;52177;55.968;37.498;2023-04-27T01:13:15;99005.72;;;6.83;73.44
65546;BME280;52177;55.968;37.498;2023-04-27T01:13:46;98997.75;;;6.83;73.49
65546;BME280;52177;55.968;37.498;2023-04-27T01:14:16;98997.75;;;6.83;73.37
65546;BME280;52177;55.968;37.498;2023-04-27T01:14:46;98998.78;;;6.82;73.54
65546;BME280;52177;55.968;37.498;2023-04-27T01:15:17;98999.59;;;6.83;73.42
65546;BME280;52177;55.968;37.498;2023-04-27T01:15:47;98996.94;;;6.83;73.34
65546;BME280;52177;55.968;37.498;2023-04-27T01:16:18;99002.91;;;6.85;73.49
65546;BME280;52177;55.968;37.498;2023-04-27T01:16:48;98994.94;;;6.85;73.70
65546;BME280;52177;55.968;37.498;2023-04-27T01:17:19;99000.91;;;6.87;73.70
65546;BME280;52177;55.968;37.498;2023-04-27T01:17:56;99000.91;;;6.87;73.66
65546;BME280;52177;55.968;37.498;2023-04-27T01:18:27;99000.91;;;6.87;73.35
65546;BME280;52177;55.968;37.498;2023-04-27T01:18:57;98989.50;;;6.86;73.60
65546;BME280;52177;55.968;37.498;2023-04-27T01:19:27;98997.44;;;6.86;73.42
65546;BME280;52177;55.968;37.498;2023-04-27T01:19:58;98999.25;;;6.86;73.49
65546;BME280;52177;55.968;37.498;2023-04-27T01:20:29;99002.91;;;6.85;73.78
65546;BME280;52177;55.968;37.498;2023-04-27T01:20:59;99002.25;;;6.83;73.93
65546;BME280;52177;55.968;37.498;2023-04-27T01:21:30;98993.63;;;6.81;73.77
65546;BME280;52177;55.968;37.498;2023-04-27T01:22:00;98996.47;;;6.79;73.92
65546;BME280;52177;55.968;37.498;2023-04-27T01:22:31;99005.41;;;6.78;74.08
65546;BME280;52177;55.968;37.498;2023-04-27T01:23:01;98999.44;;;6.76;74.17
65546;BME280;52177;55.968;37.498;2023-04-27T01:23:31;99002.28;;;6.74;74.30
65546;BME280;52177;55.968;37.498;2023-04-27T01:24:06;98997.97;;;6.73;74.24
65546;BME280;52177;55.968;37.498;2023-04-27T01:24:36;98998.16;;;6.72;74.33
65546;BME280;52177;55.968;37.498;2023-04-27T01:25:07;99004.41;;;6.71;74.14
65546;BME280;52177;55.968;37.498;2023-04-27T01:25:37;98996.63;;;6.69;74.20
65546;BME280;52177;55.968;37.498;2023-04-27T01:26:08;99001.94;;;6.69;74.23
65546;BME280;52177;55.968;37.498;2023-04-27T01:26:40;98999.28;;;6.69;74.28
65546;BME280;52177;55.968;37.498;2023-04-27T01:27:11;99001.78;;;6.71;74.29
65546;BME280;52177;55.968;37.498;2023-04-27T01:27:42;99006.25;;;6.70;74.11
65546;BME280;52177;55.968;37.498;2023-04-27T01:28:12;98999.13;;;6.71;74.01
65546;BME280;52177;55.968;37.498;2023-04-27T01:28:43;99001.78;;;6.71;74.00
65546;BME280;52177;55.968;37.498;2023-04-27T01:29:14;98997.28;;;6.71;74.06
65546;BME280;52177;55.968;37.498;2023-04-27T01:29:44;98998.97;;;6.72;73.99
65546;BME280;52177;55.968;37.498;2023-04-27T01:30:15;99003.25;;;6.73;73.82
65546;BME280;52177;55.968;37.498;2023-04-27T01:30:45;98996.31;;;6.72;73.74
65546;BME280;52177;55.968;37.498;2023-04-27T01:31:16;99004.06;;;6.74;73.86
65546;BME280;52177;55.968;37.498;2023-04-27T01:31:46;98996.31;;;6.72;73.75
65546;BME280;52177;55.968;37.498;2023-04-27T01:32:16;98994.50;;;6.73;73.82
65546;BME280;52177;55.968;37.498;2023-04-27T01:32:47;99002.44;;;6.73;73.54
65546;BME280;52177;55.968;37.498;2023-04-27T01:33:19;98994.50;;;6.73;73.55
65546;BME280;52177;55.968;37.498;2023-04-27T01:33:49;98995.31;;;6.73;73.66
65546;BME280;52177;55.968;37.498;2023-04-27T01:34:19;98989.19;;;6.73;73.55
65546;BME280;52177;55.968;37.498;2023-04-27T01:34:50;98994.50;;;6.73;73.39
65546;BME280;52177;55.968;37.498;2023-04-27T01:35:20;98997.97;;;6.73;73.33
65546;BME280;52177;55.968;37.498;2023-04-27T01:35:51;98994.34;;;6.74;73.62
65546;BME280;52177;55.968;37.498;2023-04-27T01:36:21;98991.03;;;6.72;73.71
65546;BME280;52177;55.968;37.498;2023-04-27T01:36:51;98997.28;;;6.71;73.83
65546;BME280;52177;55.968;37.498;2023-04-27T01:37:22;98996.47;;;6.71;73.77
65546;BME280;52177;55.968;37.498;2023-04-27T01:37:52;98998.31;;;6.70;73.90
65546;BME280;52177;55.968;37.498;2023-04-27T01:38:23;99002.94;;;6.68;74.06
65546;BME280;52177;55.968;37.498;2023-04-27T01:38:53;98994.19;;;6.68;73.91
65546;BME280;52177;55.968;37.498;2023-04-27T01:39:23;98997.81;;;6.67;73.98
65546;BME280;52177;55.968;37.498;2023-04-27T01:39:54;98997.13;;;6.65;74.03
65546;BME280;52177;55.968;37.498;2023-04-27T01:40:24;98993.84;;;6.63;73.79
65546;BME280;52177;55.968;37.498;2023-04-27T01:40:55;98991.38;;;6.61;73.88
65546;BME280;52177;55.968;37.498;2023-04-27T01:41:30;98992.34;;;6.60;73.82
65546;BME280;52177;55.968;37.498;2023-04-27T01:42:01;98991.53;;;6.60;73.75
65546;BME280;52177;55.968;37.498;2023-04-27T01:42:32;98993.34;;;6.59;73.78
65546;BME280;52177;55.968;37.498;2023-04-27T01:43:03;98994.38;;;6.58;73.73
65546;BME280;52177;55.968;37.498;2023-04-27T01:43:34;98997.00;;;6.58;73.82
65546;BME280;52177;55.968;37.498;2023-04-27T01:44:06;98995.19;;;6.59;73.91
65546;BME280;52177;55.968;37.498;2023-04-27T01:44:36;98990.88;;;6.58;73.58
65546;BME280;52177;55.968;37.498;2023-04-27T01:45:07;98993.69;;;6.56;73.84
65546;BME280;52177;55.968;37.498;2023-04-27T01:45:38;98990.88;;;6.58;73.73
65546;BME280;52177;55.968;37.498;2023-04-27T01:46:11;98992.69;;;6.57;73.44
65546;BME280;52177;55.968;37.498;2023-04-27T01:46:42;98990.72;;;6.59;73.74
65546;BME280;52177;55.968;37.498;2023-04-27T01:47:14;98998.00;;;6.57;73.44
65546;BME280;52177;55.968;37.498;2023-04-27T01:47:44;98997.00;;;6.58;73.54
65546;BME280;52177;55.968;37.498;2023-04-27T01:48:15;98990.03;;;6.57;73.52
65546;BME280;52177;55.968;37.498;2023-04-27T01:48:45;98994.53;;;6.57;73.36
65546;BME280;52177;55.968;37.498;2023-04-27T01:49:15;98992.88;;;6.55;73.50
65546;BME280;52177;55.968;37.498;2023-04-27T01:49:46;98995.69;;;6.54;73.55
65546;BME280;52177;55.968;37.498;2023-04-27T01:50:16;98994.00;;;6.53;73.53
65546;BME280;52177;55.968;37.498;2023-04-27T01:50:47;98995.03;;;6.52;73.58
65546;BME280;52177;55.968;37.498;2023-04-27T01:51:17;98998.50;;;6.52;73.55
65546;BME280;52177;55.968;37.498;2023-04-27T01:51:47;98990.75;;;6.51;73.47
65546;BME280;52177;55.968;37.498;2023-04-27T01:52:18;98996.03;;;6.51;73.59
65546;BME280;52177;55.968;37.498;2023-04-27T01:52:48;98988.91;;;6.51;73.57
65546;BME280;52177;55.968;37.498;2023-04-27T01:53:18;98992.38;;;6.52;73.25
65546;BME280;52177;55.968;37.498;2023-04-27T01:53:49;98996.84;;;6.51;73.22
65546;BME280;52177;55.968;37.498;2023-04-27T01:54:19;98992.38;;;6.52;73.34
65546;BME280;52177;55.968;37.498;2023-04-27T01:54:50;98997.66;;;6.52;73.26
65546;BME280;52177;55.968;37.498;2023-04-27T01:55:20;98991.56;;;6.51;73.15
65546;BME280;52177;55.968;37.498;2023-04-27T01:55:50;98992.38;;;6.52;73.18
65546;BME280;52177;55.968;37.498;2023-04-27T01:56:21;98993.19;;;6.52;73.15
65546;BME280;52177;55.968;37.498;2023-04-27T01:56:51;98995.19;;;6.50;73.35
65546;BME280;52177;55.968;37.498;2023-04-27T01:57:21;98994.34;;;6.50;73.41
65546;BME280;52177;55.968;37.498;2023-04-27T01:57:52;98997.00;;;6.50;73.34
65546;BME280;52177;55.968;37.498;2023-04-27T01:58:22;98994.34;;;6.50;73.40
65546;BME280;52177;55.968;37.498;2023-04-27T01:58:52;98993.19;;;6.52;73.67
65546;BME280;52177;55.968;37.498;2023-04-27T01:59:23;98990.38;;;6.54;73.44
65546;BME280;52177;55.968;37.498;2023-04-27T01:59:53;98998.19;;;6.55;73.61
65546;BME280;52177;55.968;37.498;2023-04-27T02:00:23;99000.47;;;6.59;73.47
65546;BME280;52177;55.968;37.498;2023-04-27T02:00:54;98995.00;;;6.60;73.47
65546;BME280;52177;55.968;37.498;2023-04-27T02:01:24;99001.13;;;6.61;73.44
65546;BME280;52177;55.968;37.498;2023-04-27T02:01:55;99003.78;;;6.61;73.11
65546;BME280;52177;55.968;37.498;2023-04-27T02:02:25;99007.25;;;6.61;73.25
65546;BME280;52177;55.968;37.498;2023-04-27T02:02:55;99001.13;;;6.61;73.18
65546;BME280;52177;55.968;37.498;2023-04-27T02:03:30;98999.31;;;6.61;73.28
65546;BME280;52177;55.968;37.498;2023-04-27T02:04:00;99001.81;;;6.63;73.44
65546;BME280;52177;55.968;37.498;2023-04-27T02:04:30;99004.94;;;6.66;73.23
65546;BME280;52177;55.968;37.498;2023-04-27T02:05:01;98999.63;;;6.66;73.26
65546;BME280;52177;55.968;37.498;2023-04-27T02:05:31;99006.41;;;6.69;73.22
65546;BME280;52177;55.968;37.498;2023-04-27T02:06:01;99010.53;;;6.71;73.41
65546;BME280;52177;55.968;37.498;2023-04-27T02:06:32;99005.91;;;6.73;73.22
65546;BME280;52177;55.968;37.498;2023-04-27T02:07:02;99008.56;;;6.73;73.19
65546;BME280;52177;55.968;37.498;2023-04-27T02:07:33;99003.75;;;6.77;73.28
65546;BME280;52177;55.968;37.498;2023-04-27T02:08:03;99006.22;;;6.79;73.37
65546;BME280;52177;55.968;37.498;2023-04-27T02:08:34;99009.53;;;6.81;73.45
65546;BME280;52177;55.968;37.498;2023-04-27T02:09:04;99013.84;;;6.82;73.49
65546;BME280;52177;55.968;37.498;2023-04-27T02:09:34;99010.03;;;6.84;73.60
65546;BME280;52177;55.968;37.498;2023-04-27T02:10:05;99012.50;;;6.86;73.79
65546;BME280;52177;55.968;37.498;2023-04-27T02:10:36;99014.97;;;6.87;73.82
65546;BME280;52177;55.968;37.498;2023-04-27T02:11:07;99018.28;;;6.89;74.05
65546;BME280;52177;55.968;37.498;2023-04-27T02:11:37;99020.94;;;6.89;74.04
65546;BME280;52177;55.968;37.498;2023-04-27T02:12:07;99017.28;;;6.90;74.38
65546;BME280;52177;55.968;37.498;2023-04-27T02:12:38;99023.44;;;6.91;74.42
65546;BME280;52177;55.968;37.498;2023-04-27T02:13:08;99015.28;;;6.92;74.35
65546;BME280;52177;55.968;37.498;2023-04-27T02:13:38;99011.66;;;6.93;74.19
65546;BME280;52177;55.968;37.498;2023-04-27T02:14:09;99022.25;;;6.93;74.21
65546;BME280;52177;55.968;37.498;2023-04-27T02:14:39;99021.41;;;6.93;74.22
65546;BME280;52177;55.968;37.498;2023-04-27T02:15:10;99016.47;;;6.90;73.94
65546;BME280;52177;55.968;37.498;2023-04-27T02:15:40;99018.44;;;6.88;74.04
65546;BME280;52177;55.968;37.498;2023-04-27T02:16:10;99016.97;;;6.85;74.02
65546;BME280;52177;55.968;37.498;2023-04-27T02:16:41;99010.19;;;6.83;73.97
65546;BME280;52177;55.968;37.498;2023-04-27T02:17:11;99011.34;;;6.80;74.29
65546;BME280;52177;55.968;37.498;2023-04-27T02:17:41;99013.34;;;6.78;74.29
65546;BME280;52177;55.968;37.498;2023-04-27T02:18:13;99012.88;;;6.74;74.49
65546;BME280;52177;55.968;37.498;2023-04-27T02:18:44;99007.88;;;6.71;74.32
65546;BME280;52177;55.968;37.498;2023-04-27T02:19:14;99008.25;;;6.68;74.36
65546;BME280;52177;55.968;37.498;2023-04-27T02:19:45;99013.88;;;6.65;74.47
65546;BME280;52177;55.968;37.498;2023-04-27T02:20:15;99010.06;;;6.60;74.54
65546;BME280;52177;55.968;37.498;2023-04-27T02:20:46;99010.25;;;6.58;74.83
65546;BME280;52177;55.968;37.498;2023-04-27T02:21:16;99008.78;;;6.55;74.80
65546;BME280;52177;55.968;37.498;2023-04-27T02:21:46;99001.31;;;6.51;74.85
65546;BME280;52177;55.968;37.498;2023-04-27T02:22:16;99009.28;;;6.51;74.75
65546;BME280;52177;55.968;37.498;2023-04-27T02:22:47;99006.94;;;6.48;75.01
65546;BME280;52177;55.968;37.498;2023-04-27T02:23:17;99005.97;;;6.49;75.00
65546;BME280;52177;55.968;37.498;2023-04-27T02:23:47;99008.75;;;6.47;75.06
65546;BME280;52177;55.968;37.498;2023-04-27T02:24:18;99004.47;;;6.46;75.18
65546;BME280;52177;55.968;37.498;2023-04-27T02:24:48;99010.59;;;6.47;75.25
65546;BME280;52177;55.968;37.498;2023-04-27T02:25:19;99014.06;;;6.47;75.39
65546;BME280;52177;55.968;37.498;2023-04-27T02:25:49;99006.94;;;6.48;75.52
65546;BME280;52177;55.968;37.498;2023-04-27T02:26:20;99008.59;;;6.49;75.38
65546;BME280;52177;55.968;37.498;2023-04-27T02:26:51;99013.06;;;6.48;75.24
65546;BME280;52177;55.968;37.498;2023-04-27T02:27:21;99014.06;;;6.47;75.02
65546;BME280;52177;55.968;37.498;2023-04-27T02:27:52;99011.41;;;6.47;75.36
65546;BME280;52177;55.968;37.498;2023-04-27T02:28:22;99010.59;;;6.47;75.29
65546;BME280;52177;55.968;37.498;2023-04-27T02:28:52;99007.75;;;6.48;75.68
65546;BME280;52177;55.968;37.498;2023-04-27T02:29:23;99012.06;;;6.49;75.65
65546;BME280;52177;55.968;37.498;2023-04-27T02:29:53;99009.28;;;6.51;75.66
65546;BME280;52177;55.968;37.498;2023-04-27T02:30:23;99014.22;;;6.54;75.56
65546;BME280;52177;55.968;37.498;2023-04-27T02:30:54;99013.72;;;6.59;75.67
65546;BME280;52177;55.968;37.498;2023-04-27T02:31:24;99019.50;;;6.62;75.85
65546;BME280;52177;55.968;37.498;2023-04-27T02:31:55;99018.31;;;6.65;75.90
65546;BME280;52177;55.968;37.498;2023-04-27T02:32:25;99018.00;;;6.68;75.84
65546;BME280;52177;55.968;37.498;2023-04-27T02:32:59;99022.97;;;6.71;75.84
65546;BME280;52177;55.968;37.498;2023-04-27T02:33:29;99015.19;;;6.69;76.03
65546;BME280;52177;55.968;37.498;2023-04-27T02:34:00;99021.13;;;6.71;75.84
65546;BME280;52177;55.968;37.498;2023-04-27T02:34:31;99021.97;;;6.72;75.67
65546;BME280;52177;55.968;37.498;2023-04-27T02:35:02;99022.81;;;6.72;75.78
65546;BME280;52177;55.968;37.498;2023-04-27T02:35:32;99024.63;;;6.72;75.63
65546;BME280;52177;55.968;37.498;2023-04-27T02:36:03;99024.63;;;6.72;75.39
65546;BME280;52177;55.968;37.498;2023-04-27T02:36:33;99027.28;;;6.72;75.53
65546;BME280;52177;55.968;37.498;2023-04-27T02:37:03;99029.94;;;6.72;75.36
65546;BME280;52177;55.968;37.498;2023-04-27T02:37:34;99027.28;;;6.72;75.46
65546;BME280;52177;55.968;37.498;2023-04-27T02:38:04;99028.25;;;6.71;75.28
65546;BME280;52177;55.968;37.498;2023-04-27T02:38:35;99030.09;;;6.70;75.56
65546;BME280;52177;55.968;37.498;2023-04-27T02:39:06;99028.25;;;6.71;75.58
65546;BME280;52177;55.968;37.498;2023-04-27T02:39:36;99030.09;;;6.70;75.54
65546;BME280;52177;55.968;37.498;2023-04-27T02:40:07;99027.44;;;6.70;75.55
65546;BME280;52177;55.968;37.498;2023-04-27T02:40:38;99031.91;;;6.70;75.57
65546;BME280;52177;55.968;37.498;2023-04-27T02:41:08;99028.41;;;6.69;75.50
65546;BME280;52177;55.968;37.498;2023-04-27T02:41:39;99026.78;;;6.68;75.71
65546;BME280;52177;55.968;37.498;2023-04-27T02:42:09;99035.53;;;6.69;75.74
65546;BME280;52177;55.968;37.498;2023-04-27T02:42:39;99029.44;;;6.68;75.82